Terminal Aerodrome Forecast
Issued by NWS Grand Forks, ND

Home | Current Version | Previous Version | Graphics & Text | Print | Product List | Glossary Off
Versions: 1 2 3 4 5 6 7 8 9 10 11 12 13 14 15 16

000
FTUS43 KFGF 022008 AAB
TAFGFK
TAF AMD
KGFK 022008Z 0220/0318 19009G14KT P6SM VCTS SCT030CB
     FM022300 VRB03KT P6SM VCSH BKN100
     FM030500 27005KT P6SM SCT250=

USA.gov is the U.S. government's official web portal to all federal, state and local government web resources and services.